^^
Station Historical Data
Daily Summary for June 28, 2017 Units:  Both    English   Metric
« Previous Day
Next Day »
Daily Weekly Monthly Yearly Custom
  High: Low: Average:
Temperature: 72.7 °F /  22.6 °C 39.4 °F /  4.1 °C 54.6 °F /  12.6 °C
Dew Point: 37.6 °F /  3.1 °C 16.9 °F /  -8.4 °C 27.1 °F /  -2.7 °C
Humidity: 79% 12% 41%
Wind Speed: 11.0mph /  17.7km/h - 0.9mph /  1.4km/h
Wind Gust: 15.0mph /  24.1km/h - -
Wind- - SSW
Pressure: 30.36 in /  1028 hPa 30.26 in /  1024.6 hPa -
Precipitation: 0.00 in /  0 mm    
Historical Graphs
 
 
Tabular Data for June 28, 2017
Time Temperature Dew Point Pressure Wind Wind Speed Wind Gust Humidity Rainfall Rate (Hourly) solar Conditions
00:05 47.7 °F /  8.7 °C 30.9 °F /  -0.6 °C 30.27in /  1024.9hPa Calm     52% 0.00in /  0mm 0.0 W/m2
00:11 47.1 °F /  8.4 °C 30.4 °F /  -0.9 °C 30.27in /  1024.9hPa Calm     52% 0.00in /  0mm 0.0 W/m2
00:17 46.8 °F /  8.2 °C 30.6 °F /  -0.8 °C 30.27in /  1024.9hPa Calm     53% 0.00in /  0mm 0.0 W/m2
00:23 46.4 °F /  8 °C 29.7 °F /  -1.3 °C 30.27in /  1024.9hPa Calm     52% 0.00in /  0mm 0.0 W/m2
00:29 46.0 °F /  7.8 °C 29.8 °F /  -1.2 °C 30.27in /  1024.9hPa Calm     53% 0.00in /  0mm 0.0 W/m2
00:35 45.7 °F /  7.6 °C 30.0 °F /  -1.1 °C 30.27in /  1024.9hPa Calm     54% 0.00in /  0mm 0.0 W/m2
00:41 45.1 °F /  7.3 °C 28.9 °F /  -1.7 °C 30.27in /  1024.9hPa Calm     53% 0.00in /  0mm 0.0 W/m2
00:48 44.8 °F /  7.1 °C 29.1 °F /  -1.6 °C 30.27in /  1024.9hPa Calm     54% 0.00in /  0mm 0.0 W/m2
00:54 44.4 °F /  6.9 °C 29.3 °F /  -1.5 °C 30.27in /  1024.9hPa Calm     55% 0.00in /  0mm 0.0 W/m2
01:00 44.1 °F /  6.7 °C 29.3 °F /  -1.5 °C 30.27in /  1024.9hPa Calm     56% 0.00in /  0mm 0.0 W/m2
01:06 43.7 °F /  6.5 °C 29.1 °F /  -1.6 °C 30.27in /  1024.9hPa Calm     56% 0.00in /  0mm 0.0 W/m2
01:12 43.3 °F /  6.3 °C 29.1 °F /  -1.6 °C 30.27in /  1024.9hPa Calm     57% 0.00in /  0mm 0.0 W/m2
01:18 43.2 °F /  6.2 °C 28.9 °F /  -1.7 °C 30.27in /  1024.9hPa Calm     57% 0.00in /  0mm 0.0 W/m2
01:25 42.8 °F /  6 °C 29.1 °F /  -1.6 °C 30.27in /  1024.9hPa Calm     58% 0.00in /  0mm 0.0 W/m2
01:31 42.6 °F /  5.9 °C 29.7 °F /  -1.3 °C 30.27in /  1024.9hPa Calm     60% 0.00in /  0mm 0.0 W/m2
01:37 42.4 °F /  5.8 °C 30.0 °F /  -1.1 °C 30.27in /  1024.9hPa Calm     61% 0.00in /  0mm 0.0 W/m2
01:43 42.3 °F /  5.7 °C 30.6 °F /  -0.8 °C 30.27in /  1024.9hPa Calm     63% 0.00in /  0mm 0.0 W/m2
01:49 42.3 °F /  5.7 °C 30.6 °F /  -0.8 °C 30.27in /  1024.9hPa Calm     63% 0.00in /  0mm 0.0 W/m2
01:55 42.1 °F /  5.6 °C 30.0 °F /  -1.1 °C 30.27in /  1024.9hPa Calm     62% 0.00in /  0mm 0.0 W/m2
02:01 41.9 °F /  5.5 °C 30.2 °F /  -1 °C 30.27in /  1024.9hPa Calm     63% 0.00in /  0mm 0.0 W/m2
02:08 41.7 °F /  5.4 °C 30.0 °F /  -1.1 °C 30.27in /  1024.9hPa Calm     63% 0.00in /  0mm 0.0 W/m2
02:14 41.5 °F /  5.3 °C 30.2 °F /  -1 °C 30.27in /  1024.9hPa Calm     64% 0.00in /  0mm 0.0 W/m2
02:20 41.4 °F /  5.2 °C 30.6 °F /  -0.8 °C 30.27in /  1024.9hPa Calm     65% 0.00in /  0mm 0.0 W/m2
02:26 41.2 °F /  5.1 °C 30.7 °F /  -0.7 °C 30.27in /  1024.9hPa Calm     66% 0.00in /  0mm 0.0 W/m2
02:32 41.0 °F /  5 °C 30.6 °F /  -0.8 °C 30.27in /  1024.9hPa Calm     66% 0.00in /  0mm 0.0 W/m2
02:38 40.8 °F /  4.9 °C 31.1 °F /  -0.5 °C 30.27in /  1024.9hPa Calm     68% 0.00in /  0mm 0.0 W/m2
02:44 40.6 °F /  4.8 °C 30.6 °F /  -0.8 °C 30.28in /  1025.3hPa Calm     67% 0.00in /  0mm 0.0 W/m2
02:51 40.5 °F /  4.7 °C 30.4 °F /  -0.9 °C 30.28in /  1025.3hPa Calm     67% 0.00in /  0mm 0.0 W/m2
02:57 40.3 °F /  4.6 °C 30.6 °F /  -0.8 °C 30.28in /  1025.3hPa Calm     68% 0.00in /  0mm 0.0 W/m2
03:03 40.1 °F /  4.5 °C 30.4 °F /  -0.9 °C 30.28in /  1025.3hPa Calm     68% 0.00in /  0mm 0.0 W/m2
03:09 39.9 °F /  4.4 °C 30.6 °F /  -0.8 °C 30.28in /  1025.3hPa Calm     69% 0.00in /  0mm 0.0 W/m2
03:15 39.7 °F /  4.3 °C 30.7 °F /  -0.7 °C 30.28in /  1025.3hPa Calm     70% 0.00in /  0mm 0.0 W/m2
03:21 39.7 °F /  4.3 °C 30.7 °F /  -0.7 °C 30.28in /  1025.3hPa Calm     70% 0.00in /  0mm 0.0 W/m2
03:27 39.9 °F /  4.4 °C 31.3 °F /  -0.4 °C 30.28in /  1025.3hPa Calm     71% 0.00in /  0mm 0.0 W/m2
03:33 39.7 °F /  4.3 °C 30.7 °F /  -0.7 °C 30.27in /  1024.9hPa Calm     70% 0.00in /  0mm 0.0 W/m2
03:40 39.7 °F /  4.3 °C 31.5 °F /  -0.3 °C 30.27in /  1024.9hPa Calm     72% 0.00in /  0mm 0.0 W/m2
03:46 39.7 °F /  4.3 °C 31.5 °F /  -0.3 °C 30.27in /  1024.9hPa Calm     72% 0.00in /  0mm 0.0 W/m2
03:52 40.1 °F /  4.5 °C 31.8 °F /  -0.1 °C 30.27in /  1024.9hPa Calm     72% 0.00in /  0mm 0.0 W/m2
03:58 40.5 °F /  4.7 °C 32.2 °F /  0.1 °C 30.27in /  1024.9hPa Calm     72% 0.00in /  0mm 0.0 W/m2
04:04 40.6 °F /  4.8 °C 32.4 °F /  0.2 °C 30.26in /  1024.6hPa Calm     72% 0.00in /  0mm 0.0 W/m2
04:10 40.8 °F /  4.9 °C 32.2 °F /  0.1 °C 30.26in /  1024.6hPa Calm     71% 0.00in /  0mm 0.0 W/m2
04:17 40.6 °F /  4.8 °C 31.6 °F /  -0.2 °C 30.26in /  1024.6hPa Calm     70% 0.00in /  0mm 0.0 W/m2
04:23 40.5 °F /  4.7 °C 32.2 °F /  0.1 °C 30.27in /  1024.9hPa Calm   1.0mph /  1.6km/h 72% 0.00in /  0mm 0.0 W/m2
04:29 40.5 °F /  4.7 °C 31.8 °F /  -0.1 °C 30.26in /  1024.6hPa Calm     71% 0.00in /  0mm 0.0 W/m2
04:35 40.5 °F /  4.7 °C 32.2 °F /  0.1 °C 30.26in /  1024.6hPa Calm     72% 0.00in /  0mm 0.0 W/m2
04:41 40.5 °F /  4.7 °C 32.5 °F /  0.3 °C 30.26in /  1024.6hPa Calm   1.0mph /  1.6km/h 73% 0.00in /  0mm 0.0 W/m2
04:47 40.5 °F /  4.7 °C 32.5 °F /  0.3 °C 30.26in /  1024.6hPa Calm     73% 0.00in /  0mm 0.0 W/m2
04:53 40.5 °F /  4.7 °C 32.5 °F /  0.3 °C 30.26in /  1024.6hPa Calm     73% 0.00in /  0mm 0.0 W/m2
04:59 40.3 °F /  4.6 °C 32.7 °F /  0.4 °C 30.27in /  1024.9hPa Calm     74% 0.00in /  0mm 0.0 W/m2
05:05 40.3 °F /  4.6 °C 33.1 °F /  0.6 °C 30.27in /  1024.9hPa Calm     75% 0.00in /  0mm 0.0 W/m2
05:11 40.3 °F /  4.6 °C 32.4 °F /  0.2 °C 30.27in /  1024.9hPa Calm     73% 0.00in /  0mm 0.0 W/m2
05:17 40.3 °F /  4.6 °C 33.1 °F /  0.6 °C 30.27in /  1024.9hPa Calm     75% 0.00in /  0mm 0.0 W/m2
05:23 40.1 °F /  4.5 °C 33.1 °F /  0.6 °C 30.27in /  1024.9hPa Calm     76% 0.00in /  0mm 0.0 W/m2
05:29 40.1 °F /  4.5 °C 33.1 °F /  0.6 °C 30.27in /  1024.9hPa Calm     76% 0.00in /  0mm 0.0 W/m2
05:35 40.1 °F /  4.5 °C 33.1 °F /  0.6 °C 30.27in /  1024.9hPa Calm     76% 0.00in /  0mm 0.0 W/m2
05:41 39.9 °F /  4.4 °C 32.9 °F /  0.5 °C 30.27in /  1024.9hPa Calm     76% 0.00in /  0mm 0.0 W/m2
05:47 39.9 °F /  4.4 °C 33.3 °F /  0.7 °C 30.27in /  1024.9hPa Calm     77% 0.00in /  0mm 0.0 W/m2
05:53 39.9 °F /  4.4 °C 33.3 °F /  0.7 °C 30.28in /  1025.3hPa Calm     77% 0.00in /  0mm 0.0 W/m2
05:59 39.9 °F /  4.4 °C 33.3 °F /  0.7 °C 30.28in /  1025.3hPa Calm     77% 0.00in /  0mm 0.0 W/m2
06:06 39.7 °F /  4.3 °C 33.1 °F /  0.6 °C 30.28in /  1025.3hPa Calm   1.0mph /  1.6km/h 77% 0.00in /  0mm 0.0 W/m2
06:12 39.7 °F /  4.3 °C 33.4 °F /  0.8 °C 30.28in /  1025.3hPa Calm     78% 0.00in /  0mm 0.0 W/m2
06:18 39.6 °F /  4.2 °C 33.3 °F /  0.7 °C 30.28in /  1025.3hPa Calm     78% 0.00in /  0mm 0.0 W/m2
06:24 39.6 °F /  4.2 °C 33.3 °F /  0.7 °C 30.28in /  1025.3hPa Calm   2.0mph /  3.2km/h 78% 0.00in /  0mm 0.0 W/m2
06:30 39.6 °F /  4.2 °C 33.3 °F /  0.7 °C 30.29in /  1025.6hPa Calm     78% 0.00in /  0mm 0.0 W/m2
06:36 39.6 °F /  4.2 °C 33.3 °F /  0.7 °C 30.29in /  1025.6hPa Calm     78% 0.00in /  0mm 0.0 W/m2
06:44 39.4 °F /  4.1 °C 32.7 °F /  0.4 °C 30.29in /  1025.6hPa Calm     77% 0.00in /  0mm 7.0 W/m2
06:50 39.4 °F /  4.1 °C 33.4 °F /  0.8 °C 30.29in /  1025.6hPa Calm     79% 0.00in /  0mm 11.0 W/m2
06:56 39.4 °F /  4.1 °C 33.4 °F /  0.8 °C 30.30in /  1026hPa Calm   2.0mph /  3.2km/h 79% 0.00in /  0mm 12.0 W/m2
07:02 39.6 °F /  4.2 °C 33.6 °F /  0.9 °C 30.30in /  1026hPa Calm     79% 0.00in /  0mm 14.0 W/m2
07:08 39.7 °F /  4.3 °C 33.8 °F /  1 °C 30.30in /  1026hPa Calm     79% 0.00in /  0mm 16.0 W/m2
07:14 39.9 °F /  4.4 °C 33.6 °F /  0.9 °C 30.30in /  1026hPa Calm   4.0mph /  6.4km/h 78% 0.00in /  0mm 18.0 W/m2
07:20 40.1 °F /  4.5 °C 33.8 °F /  1 °C 30.31in /  1026.3hPa Calm   3.0mph /  4.8km/h 78% 0.00in /  0mm 19.0 W/m2
07:26 40.5 °F /  4.7 °C 34.2 °F /  1.2 °C 30.31in /  1026.3hPa ESE 0.9mph /  1.4km/h 2.0mph /  3.2km/h 78% 0.00in /  0mm 21.0 W/m2
07:32 40.6 °F /  4.8 °C 34.0 °F /  1.1 °C 30.30in /  1026hPa Calm   3.0mph /  4.8km/h 77% 0.00in /  0mm 23.0 W/m2
07:38 41.2 °F /  5.1 °C 34.5 °F /  1.4 °C 30.31in /  1026.3hPa Calm   3.0mph /  4.8km/h 77% 0.00in /  0mm 25.0 W/m2
07:44 41.4 °F /  5.2 °C 34.7 °F /  1.5 °C 30.31in /  1026.3hPa ENE 0.9mph /  1.4km/h 1.0mph /  1.6km/h 77% 0.00in /  0mm 26.0 W/m2
07:50 42.1 °F /  5.6 °C 35.4 °F /  1.9 °C 30.31in /  1026.3hPa Calm   2.0mph /  3.2km/h 77% 0.00in /  0mm 26.0 W/m2
07:56 43.0 °F /  6.1 °C 36.0 °F /  2.2 °C 30.31in /  1026.3hPa Calm   2.0mph /  3.2km/h 76% 0.00in /  0mm 127.0 W/m2
08:02 44.8 °F /  7.1 °C 36.7 °F /  2.6 °C 30.31in /  1026.3hPa Calm   1.0mph /  1.6km/h 73% 0.00in /  0mm 257.0 W/m2
08:08 46.2 °F /  7.9 °C 37.0 °F /  2.8 °C 30.32in /  1026.6hPa East 0.9mph /  1.4km/h 1.0mph /  1.6km/h 70% 0.00in /  0mm 281.0 W/m2
08:14 48.4 °F /  9.1 °C 37.6 °F /  3.1 °C 30.32in /  1026.6hPa Calm   1.0mph /  1.6km/h 66% 0.00in /  0mm 299.0 W/m2
08:20 50.4 °F /  10.2 °C 37.4 °F /  3 °C 30.33in /  1027hPa Calm     61% 0.00in /  0mm 320.0 W/m2
08:28 52.3 °F /  11.3 °C 35.2 °F /  1.8 °C 30.33in /  1027hPa Calm     52% 0.00in /  0mm 346.0 W/m2
08:34 54.1 °F /  12.3 °C 35.4 °F /  1.9 °C 30.33in /  1027hPa Calm     49% 0.00in /  0mm 366.0 W/m2
08:40 55.8 °F /  13.2 °C 35.8 °F /  2.1 °C 30.33in /  1027hPa Calm   1.0mph /  1.6km/h 47% 0.00in /  0mm 383.0 W/m2
08:46 55.9 °F /  13.3 °C 36.0 °F /  2.2 °C 30.33in /  1027hPa Calm   1.0mph /  1.6km/h 47% 0.00in /  0mm 401.0 W/m2
08:52 55.9 °F /  13.3 °C 36.0 °F /  2.2 °C 30.33in /  1027hPa Calm     47% 0.00in /  0mm 418.0 W/m2
08:58 56.8 °F /  13.8 °C 36.3 °F /  2.4 °C 30.33in /  1027hPa Calm   1.0mph /  1.6km/h 46% 0.00in /  0mm 436.0 W/m2
09:04 57.7 °F /  14.3 °C 36.5 °F /  2.5 °C 30.33in /  1027hPa Calm   1.0mph /  1.6km/h 45% 0.00in /  0mm 452.0 W/m2
09:10 58.8 °F /  14.9 °C 35.8 °F /  2.1 °C 30.33in /  1027hPa Calm     42% 0.00in /  0mm 469.0 W/m2
09:16 59.2 °F /  15.1 °C 35.4 °F /  1.9 °C 30.33in /  1027hPa Calm   1.0mph /  1.6km/h 41% 0.00in /  0mm 485.0 W/m2
09:22 59.7 °F /  15.4 °C 35.4 °F /  1.9 °C 30.33in /  1027hPa Calm   1.0mph /  1.6km/h 40% 0.00in /  0mm 497.0 W/m2
09:28 60.6 °F /  15.9 °C 35.6 °F /  2 °C 30.33in /  1027hPa Calm   2.0mph /  3.2km/h 39% 0.00in /  0mm 515.0 W/m2
09:34 61.3 °F /  16.3 °C 35.6 °F /  2 °C 30.33in /  1027hPa WSW 0.9mph /  1.4km/h 2.0mph /  3.2km/h 38% 0.00in /  0mm 524.0 W/m2
09:40 61.5 °F /  16.4 °C 34.3 °F /  1.3 °C 30.34in /  1027.3hPa WNW 0.9mph /  1.4km/h 2.0mph /  3.2km/h 36% 0.00in /  0mm 538.0 W/m2
09:46 62.1 °F /  16.7 °C 33.4 °F /  0.8 °C 30.34in /  1027.3hPa Calm   3.0mph /  4.8km/h 34% 0.00in /  0mm 552.0 W/m2
09:52 62.8 °F /  17.1 °C 34.0 °F /  1.1 °C 30.33in /  1027hPa Calm   1.0mph /  1.6km/h 34% 0.00in /  0mm 566.0 W/m2
09:58 63.3 °F /  17.4 °C 34.5 °F /  1.4 °C 30.33in /  1027hPa NNE 0.9mph /  1.4km/h 1.0mph /  1.6km/h 34% 0.00in /  0mm 577.0 W/m2
10:04 63.9 °F /  17.7 °C 32.7 °F /  0.4 °C 30.33in /  1027hPa Calm   1.0mph /  1.6km/h 31% 0.00in /  0mm 591.0 W/m2
10:10 64.2 °F /  17.9 °C 32.2 °F /  0.1 °C 30.33in /  1027hPa Calm   1.0mph /  1.6km/h 30% 0.00in /  0mm 598.0 W/m2
10:16 64.2 °F /  17.9 °C 31.3 °F /  -0.4 °C 30.33in /  1027hPa Calm   2.0mph /  3.2km/h 29% 0.00in /  0mm 610.0 W/m2
10:22 64.0 °F /  17.8 °C 31.1 °F /  -0.5 °C 30.33in /  1027hPa Calm   2.0mph /  3.2km/h 29% 0.00in /  0mm 619.0 W/m2
10:28 64.2 °F /  17.9 °C 31.3 °F /  -0.4 °C 30.33in /  1027hPa WNW 2.0mph /  3.2km/h 3.0mph /  4.8km/h 29% 0.00in /  0mm 626.0 W/m2
10:34 64.2 °F /  17.9 °C 30.4 °F /  -0.9 °C 30.33in /  1027hPa Calm   1.0mph /  1.6km/h 28% 0.00in /  0mm 633.0 W/m2
10:40 64.2 °F /  17.9 °C 30.4 °F /  -0.9 °C 30.33in /  1027hPa Calm   2.0mph /  3.2km/h 28% 0.00in /  0mm 642.0 W/m2
10:46 64.0 °F /  17.8 °C 30.2 °F /  -1 °C 30.33in /  1027hPa Calm   1.0mph /  1.6km/h 28% 0.00in /  0mm 650.0 W/m2
10:52 64.0 °F /  17.8 °C 30.2 °F /  -1 °C 30.32in /  1026.6hPa SSW 2.9mph /  4.7km/h 3.0mph /  4.8km/h 28% 0.00in /  0mm 657.0 W/m2
10:58 64.6 °F /  18.1 °C 30.7 °F /  -0.7 °C 30.32in /  1026.6hPa NE 0.9mph /  1.4km/h 6.0mph /  9.7km/h 28% 0.00in /  0mm 663.0 W/m2
11:05 65.5 °F /  18.6 °C 29.7 °F /  -1.3 °C 30.32in /  1026.6hPa North 0.9mph /  1.4km/h 2.0mph /  3.2km/h 26% 0.00in /  0mm 670.0 W/m2
11:11 66.0 °F /  18.9 °C 27.1 °F /  -2.7 °C 30.32in /  1026.6hPa NNW 0.9mph /  1.4km/h 2.0mph /  3.2km/h 23% 0.00in /  0mm 677.0 W/m2
11:23 67.8 °F /  19.9 °C 27.5 °F /  -2.5 °C 30.32in /  1026.6hPa NNW 2.0mph /  3.2km/h 5.0mph /  8km/h 22% 0.00in /  0mm 686.0 W/m2
11:29 68.4 °F /  20.2 °C 27.0 °F /  -2.8 °C 30.31in /  1026.3hPa Calm   7.0mph /  11.3km/h 21% 0.00in /  0mm 687.0 W/m2
11:35 68.5 °F /  20.3 °C 28.2 °F /  -2.1 °C 30.31in /  1026.3hPa SW 4.0mph /  6.4km/h 4.0mph /  6.4km/h 22% 0.00in /  0mm 684.0 W/m2
11:41 69.1 °F /  20.6 °C 26.2 °F /  -3.2 °C 30.31in /  1026.3hPa North 0.9mph /  1.4km/h 5.0mph /  8km/h 20% 0.00in /  0mm 689.0 W/m2
11:47 69.4 °F /  20.8 °C 25.3 °F /  -3.7 °C 30.30in /  1026hPa Calm   6.0mph /  9.7km/h 19% 0.00in /  0mm 691.0 W/m2
11:53 69.6 °F /  20.9 °C 24.3 °F /  -4.3 °C 30.30in /  1026hPa SW 0.9mph /  1.4km/h 8.0mph /  12.9km/h 18% 0.00in /  0mm 691.0 W/m2
11:59 69.8 °F /  21 °C 24.4 °F /  -4.2 °C 30.30in /  1026hPa West 2.0mph /  3.2km/h 3.0mph /  4.8km/h 18% 0.00in /  0mm 691.0 W/m2
12:06 70.0 °F /  21.1 °C 24.4 °F /  -4.2 °C 30.30in /  1026hPa WNW 0.9mph /  1.4km/h 8.0mph /  12.9km/h 18% 0.00in /  0mm 686.0 W/m2
12:12 70.0 °F /  21.1 °C 24.4 °F /  -4.2 °C 30.30in /  1026hPa North 2.0mph /  3.2km/h 3.0mph /  4.8km/h 18% 0.00in /  0mm 687.0 W/m2
12:18 70.3 °F /  21.3 °C 23.5 °F /  -4.7 °C 30.29in /  1025.6hPa NNW 6.0mph /  9.7km/h 8.0mph /  12.9km/h 17% 0.00in /  0mm 686.0 W/m2
12:24 70.9 °F /  21.6 °C 22.5 °F /  -5.3 °C 30.29in /  1025.6hPa North 4.0mph /  6.4km/h 6.0mph /  9.7km/h 16% 0.00in /  0mm 680.0 W/m2
12:30 71.2 °F /  21.8 °C 22.8 °F /  -5.1 °C 30.29in /  1025.6hPa NW 2.9mph /  4.7km/h 9.0mph /  14.5km/h 16% 0.00in /  0mm 673.0 W/m2
12:36 71.4 °F /  21.9 °C 21.4 °F /  -5.9 °C 30.29in /  1025.6hPa West 2.0mph /  3.2km/h 10.0mph /  16.1km/h 15% 0.00in /  0mm 671.0 W/m2
12:42 71.4 °F /  21.9 °C 21.4 °F /  -5.9 °C 30.28in /  1025.3hPa West 2.0mph /  3.2km/h 9.0mph /  14.5km/h 15% 0.00in /  0mm 663.0 W/m2
12:48 71.2 °F /  21.8 °C 21.2 °F /  -6 °C 30.28in /  1025.3hPa West 2.9mph /  4.7km/h 11.0mph /  17.7km/h 15% 0.00in /  0mm 654.0 W/m2
12:54 71.2 °F /  21.8 °C 21.2 °F /  -6 °C 30.28in /  1025.3hPa NW 4.0mph /  6.4km/h 7.0mph /  11.3km/h 15% 0.00in /  0mm 647.0 W/m2
13:01 71.8 °F /  22.1 °C 21.6 °F /  -5.8 °C 30.28in /  1025.3hPa SW 0.9mph /  1.4km/h 5.0mph /  8km/h 15% 0.00in /  0mm 642.0 W/m2
13:07 72.1 °F /  22.3 °C 20.3 °F /  -6.5 °C 30.28in /  1025.3hPa NW 6.0mph /  9.7km/h 13.0mph /  20.9km/h 14% 0.00in /  0mm 640.0 W/m2
13:13 72.0 °F /  22.2 °C 18.5 °F /  -7.5 °C 30.28in /  1025.3hPa West 2.0mph /  3.2km/h 9.0mph /  14.5km/h 13% 0.00in /  0mm 631.0 W/m2
13:19 72.0 °F /  22.2 °C 20.1 °F /  -6.6 °C 30.28in /  1025.3hPa West 11.0mph /  17.7km/h 11.0mph /  17.7km/h 14% 0.00in /  0mm 619.0 W/m2
13:25 72.0 °F /  22.2 °C 20.1 °F /  -6.6 °C 30.27in /  1024.9hPa WNW 2.9mph /  4.7km/h 7.0mph /  11.3km/h 14% 0.00in /  0mm 606.0 W/m2
13:31 71.8 °F /  22.1 °C 19.9 °F /  -6.7 °C 30.27in /  1024.9hPa NW 6.9mph /  11.1km/h 15.0mph /  24.1km/h 14% 0.00in /  0mm 599.0 W/m2
13:37 72.0 °F /  22.2 °C 20.1 °F /  -6.6 °C 30.27in /  1024.9hPa West 8.1mph /  13km/h 8.1mph /  13km/h 14% 0.00in /  0mm 587.0 W/m2
13:43 72.0 °F /  22.2 °C 18.5 °F /  -7.5 °C 30.27in /  1024.9hPa West 2.0mph /  3.2km/h 6.0mph /  9.7km/h 13% 0.00in /  0mm 570.0 W/m2
13:49 72.3 °F /  22.4 °C 18.7 °F /  -7.4 °C 30.27in /  1024.9hPa WNW 4.0mph /  6.4km/h 12.0mph /  19.3km/h 13% 0.00in /  0mm 564.0 W/m2
13:58 72.3 °F /  22.4 °C 16.9 °F /  -8.4 °C 30.27in /  1024.9hPa West 0.9mph /  1.4km/h 6.0mph /  9.7km/h 12% 0.00in /  0mm 550.0 W/m2
14:04 72.5 °F /  22.5 °C 18.9 °F /  -7.3 °C 30.27in /  1024.9hPa NNE 2.9mph /  4.7km/h 9.0mph /  14.5km/h 13% 0.00in /  0mm 527.0 W/m2
14:10 72.7 °F /  22.6 °C 19.0 °F /  -7.2 °C 30.27in /  1024.9hPa West 6.0mph /  9.7km/h 10.0mph /  16.1km/h 13% 0.00in /  0mm 519.0 W/m2
14:17 72.7 °F /  22.6 °C 17.1 °F /  -8.3 °C 30.27in /  1024.9hPa WNW 4.0mph /  6.4km/h 7.0mph /  11.3km/h 12% 0.00in /  0mm 508.0 W/m2
14:22 72.7 °F /  22.6 °C 19.0 °F /  -7.2 °C 30.26in /  1024.6hPa NW 2.0mph /  3.2km/h 8.0mph /  12.9km/h 13% 0.00in /  0mm 485.0 W/m2
14:28 72.7 °F /  22.6 °C 19.0 °F /  -7.2 °C 30.26in /  1024.6hPa West 2.0mph /  3.2km/h 10.0mph /  16.1km/h 13% 0.00in /  0mm 468.0 W/m2
14:34 72.7 °F /  22.6 °C 20.7 °F /  -6.3 °C 30.26in /  1024.6hPa WNW 0.9mph /  1.4km/h 5.0mph /  8km/h 14% 0.00in /  0mm 445.0 W/m2
14:41 72.5 °F /  22.5 °C 23.7 °F /  -4.6 °C 30.26in /  1024.6hPa WSW 2.0mph /  3.2km/h 6.0mph /  9.7km/h 16% 0.00in /  0mm 434.0 W/m2
14:47 72.3 °F /  22.4 °C 22.1 °F /  -5.5 °C 30.26in /  1024.6hPa West 2.0mph /  3.2km/h 11.0mph /  17.7km/h 15% 0.00in /  0mm 420.0 W/m2
14:53 72.1 °F /  22.3 °C 20.3 °F /  -6.5 °C 30.26in /  1024.6hPa West 8.9mph /  14.3km/h 11.0mph /  17.7km/h 14% 0.00in /  0mm 403.0 W/m2
14:59 71.8 °F /  22.1 °C 19.9 °F /  -6.7 °C 30.26in /  1024.6hPa SW 2.9mph /  4.7km/h 13.0mph /  20.9km/h 14% 0.00in /  0mm 385.0 W/m2
15:05 71.2 °F /  21.8 °C 19.6 °F /  -6.9 °C 30.26in /  1024.6hPa WNW 2.9mph /  4.7km/h 13.0mph /  20.9km/h 14% 0.00in /  0mm 371.0 W/m2
15:11 70.9 °F /  21.6 °C 19.2 °F /  -7.1 °C 30.26in /  1024.6hPa WSW 8.9mph /  14.3km/h 10.0mph /  16.1km/h 14% 0.00in /  0mm 348.0 W/m2
15:17 70.7 °F /  21.5 °C 22.3 °F /  -5.4 °C 30.26in /  1024.6hPa North 4.9mph /  7.9km/h 11.0mph /  17.7km/h 16% 0.00in /  0mm 330.0 W/m2
15:24 70.5 °F /  21.4 °C 23.5 °F /  -4.7 °C 30.27in /  1024.9hPa SW 4.9mph /  7.9km/h 10.0mph /  16.1km/h 17% 0.00in /  0mm 53.0 W/m2
15:30 70.3 °F /  21.3 °C 23.5 °F /  -4.7 °C 30.27in /  1024.9hPa Calm   4.0mph /  6.4km/h 17% 0.00in /  0mm 47.0 W/m2
15:36 70.2 °F /  21.2 °C 23.4 °F /  -4.8 °C 30.27in /  1024.9hPa West 2.9mph /  4.7km/h 6.0mph /  9.7km/h 17% 0.00in /  0mm 44.0 W/m2
15:42 70.0 °F /  21.1 °C 23.2 °F /  -4.9 °C 30.27in /  1024.9hPa West 2.0mph /  3.2km/h 10.0mph /  16.1km/h 17% 0.00in /  0mm 42.0 W/m2
15:48 69.6 °F /  20.9 °C 21.4 °F /  -5.9 °C 30.27in /  1024.9hPa WNW 2.0mph /  3.2km/h 10.0mph /  16.1km/h 16% 0.00in /  0mm 40.0 W/m2
15:54 69.3 °F /  20.7 °C 22.6 °F /  -5.2 °C 30.27in /  1024.9hPa West 2.0mph /  3.2km/h 7.0mph /  11.3km/h 17% 0.00in /  0mm 39.0 W/m2
16:01 69.1 °F /  20.6 °C 23.7 °F /  -4.6 °C 30.27in /  1024.9hPa WNW 4.0mph /  6.4km/h 7.0mph /  11.3km/h 18% 0.00in /  0mm 35.0 W/m2
16:07 68.7 °F /  20.4 °C 23.5 °F /  -4.7 °C 30.27in /  1024.9hPa Calm   5.0mph /  8km/h 18% 0.00in /  0mm 32.0 W/m2
16:13 68.7 °F /  20.4 °C 24.8 °F /  -4 °C 30.27in /  1024.9hPa NW 2.9mph /  4.7km/h 3.0mph /  4.8km/h 19% 0.00in /  0mm 28.0 W/m2
16:19 68.4 °F /  20.2 °C 24.4 °F /  -4.2 °C 30.27in /  1024.9hPa WNW 2.0mph /  3.2km/h 12.0mph /  19.3km/h 19% 0.00in /  0mm 25.0 W/m2
16:25 68.2 °F /  20.1 °C 24.3 °F /  -4.3 °C 30.27in /  1024.9hPa Calm   1.0mph /  1.6km/h 19% 0.00in /  0mm 25.0 W/m2
16:31 67.8 °F /  19.9 °C 25.3 °F /  -3.7 °C 30.27in /  1024.9hPa Calm   4.0mph /  6.4km/h 20% 0.00in /  0mm 23.0 W/m2
16:37 67.6 °F /  19.8 °C 25.2 °F /  -3.8 °C 30.28in /  1025.3hPa Calm   6.0mph /  9.7km/h 20% 0.00in /  0mm 21.0 W/m2
16:50 67.1 °F /  19.5 °C 23.5 °F /  -4.7 °C 30.28in /  1025.3hPa Calm   5.0mph /  8km/h 19% 0.00in /  0mm 16.0 W/m2
16:56 66.7 °F /  19.3 °C 23.2 °F /  -4.9 °C 30.28in /  1025.3hPa Calm   5.0mph /  8km/h 19% 0.00in /  0mm 14.0 W/m2
17:02 66.6 °F /  19.2 °C 24.3 °F /  -4.3 °C 30.29in /  1025.6hPa WSW 0.9mph /  1.4km/h 4.0mph /  6.4km/h 20% 0.00in /  0mm 11.0 W/m2
17:08 66.0 °F /  18.9 °C 23.7 °F /  -4.6 °C 30.29in /  1025.6hPa WSW 0.9mph /  1.4km/h 1.0mph /  1.6km/h 20% 0.00in /  0mm 7.0 W/m2
17:14 65.7 °F /  18.7 °C 23.5 °F /  -4.7 °C 30.29in /  1025.6hPa Calm   3.0mph /  4.8km/h 20% 0.00in /  0mm 5.0 W/m2
17:20 64.9 °F /  18.3 °C 24.1 °F /  -4.4 °C 30.29in /  1025.6hPa Calm   2.0mph /  3.2km/h 21% 0.00in /  0mm 0.0 W/m2
17:26 64.6 °F /  18.1 °C 23.7 °F /  -4.6 °C 30.29in /  1025.6hPa Calm   1.0mph /  1.6km/h 21% 0.00in /  0mm 0.0 W/m2
17:33 63.9 °F /  17.7 °C 24.3 °F /  -4.3 °C 30.30in /  1026hPa Calm     22% 0.00in /  0mm 0.0 W/m2
17:39 63.0 °F /  17.2 °C 23.5 °F /  -4.7 °C 30.30in /  1026hPa Calm     22% 0.00in /  0mm 0.0 W/m2
17:45 62.2 °F /  16.8 °C 23.9 °F /  -4.5 °C 30.30in /  1026hPa Calm   1.0mph /  1.6km/h 23% 0.00in /  0mm 0.0 W/m2
17:51 61.5 °F /  16.4 °C 24.4 °F /  -4.2 °C 30.30in /  1026hPa Calm     24% 0.00in /  0mm 0.0 W/m2
17:57 60.8 °F /  16 °C 23.7 °F /  -4.6 °C 30.30in /  1026hPa Calm     24% 0.00in /  0mm 0.0 W/m2
18:03 60.1 °F /  15.6 °C 24.1 °F /  -4.4 °C 30.31in /  1026.3hPa Calm     25% 0.00in /  0mm 0.0 W/m2
18:09 59.4 °F /  15.2 °C 24.4 °F /  -4.2 °C 30.31in /  1026.3hPa Calm     26% 0.00in /  0mm 0.0 W/m2
18:11 59.2 °F /  15.1 °C 23.4 °F /  -4.8 °C 30.31in /  1026.3hPa Calm     25% 0.00in /  0mm 0.0 W/m2
18:18 58.5 °F /  14.7 °C 23.7 °F /  -4.6 °C 30.31in /  1026.3hPa Calm     26% 0.00in /  0mm 0.0 W/m2
18:24 57.7 °F /  14.3 °C 23.0 °F /  -5 °C 30.32in /  1026.6hPa Calm     26% 0.00in /  0mm 0.0 W/m2
18:30 57.0 °F /  13.9 °C 23.4 °F /  -4.8 °C 30.32in /  1026.6hPa Calm     27% 0.00in /  0mm 0.0 W/m2
18:36 56.5 °F /  13.6 °C 22.8 °F /  -5.1 °C 30.32in /  1026.6hPa Calm     27% 0.00in /  0mm 0.0 W/m2
18:42 55.9 °F /  13.3 °C 22.5 °F /  -5.3 °C 30.32in /  1026.6hPa ESE 0.9mph /  1.4km/h 2.0mph /  3.2km/h 27% 0.00in /  0mm 0.0 W/m2
18:48 55.6 °F /  13.1 °C 22.1 °F /  -5.5 °C 30.32in /  1026.6hPa Calm   2.0mph /  3.2km/h 27% 0.00in /  0mm 0.0 W/m2
18:54 55.0 °F /  12.8 °C 22.5 °F /  -5.3 °C 30.32in /  1026.6hPa Calm     28% 0.00in /  0mm 0.0 W/m2
19:01 54.9 °F /  12.7 °C 22.3 °F /  -5.4 °C 30.32in /  1026.6hPa Calm     28% 0.00in /  0mm 0.0 W/m2
19:07 54.3 °F /  12.4 °C 22.6 °F /  -5.2 °C 30.33in /  1027hPa Calm   1.0mph /  1.6km/h 29% 0.00in /  0mm 0.0 W/m2
19:13 54.0 °F /  12.2 °C 22.5 °F /  -5.3 °C 30.33in /  1027hPa Calm     29% 0.00in /  0mm 0.0 W/m2
19:19 53.6 °F /  12 °C 22.1 °F /  -5.5 °C 30.33in /  1027hPa Calm   1.0mph /  1.6km/h 29% 0.00in /  0mm 0.0 W/m2
19:25 53.2 °F /  11.8 °C 21.7 °F /  -5.7 °C 30.33in /  1027hPa ENE 0.9mph /  1.4km/h 2.0mph /  3.2km/h 29% 0.00in /  0mm 0.0 W/m2
19:31 53.1 °F /  11.7 °C 22.5 °F /  -5.3 °C 30.33in /  1027hPa ESE 0.9mph /  1.4km/h 1.0mph /  1.6km/h 30% 0.00in /  0mm 0.0 W/m2
19:37 52.9 °F /  11.6 °C 22.3 °F /  -5.4 °C 30.34in /  1027.3hPa ESE 0.9mph /  1.4km/h 2.0mph /  3.2km/h 30% 0.00in /  0mm 0.0 W/m2
19:44 52.5 °F /  11.4 °C 21.9 °F /  -5.6 °C 30.34in /  1027.3hPa Calm     30% 0.00in /  0mm 0.0 W/m2
19:50 52.5 °F /  11.4 °C 21.9 °F /  -5.6 °C 30.34in /  1027.3hPa ESE 2.0mph /  3.2km/h 3.0mph /  4.8km/h 30% 0.00in /  0mm 0.0 W/m2
19:56 52.5 °F /  11.4 °C 21.9 °F /  -5.6 °C 30.34in /  1027.3hPa Calm   1.0mph /  1.6km/h 30% 0.00in /  0mm 0.0 W/m2
20:03 52.3 °F /  11.3 °C 21.7 °F /  -5.7 °C 30.34in /  1027.3hPa Calm   2.0mph /  3.2km/h 30% 0.00in /  0mm 0.0 W/m2
20:10 52.2 °F /  11.2 °C 22.5 °F /  -5.3 °C 30.34in /  1027.3hPa Calm   2.0mph /  3.2km/h 31% 0.00in /  0mm 0.0 W/m2
20:18 51.8 °F /  11 °C 22.1 °F /  -5.5 °C 30.34in /  1027.3hPa Calm   6.0mph /  9.7km/h 31% 0.00in /  0mm 0.0 W/m2
20:25 51.4 °F /  10.8 °C 21.7 °F /  -5.7 °C 30.34in /  1027.3hPa ESE 2.0mph /  3.2km/h 2.0mph /  3.2km/h 31% 0.00in /  0mm 0.0 W/m2
20:31 51.3 °F /  10.7 °C 21.6 °F /  -5.8 °C 30.34in /  1027.3hPa Calm   3.0mph /  4.8km/h 31% 0.00in /  0mm 0.0 W/m2
20:37 51.1 °F /  10.6 °C 22.3 °F /  -5.4 °C 30.34in /  1027.3hPa Calm     32% 0.00in /  0mm 0.0 W/m2
20:43 50.7 °F /  10.4 °C 21.9 °F /  -5.6 °C 30.34in /  1027.3hPa Calm   1.0mph /  1.6km/h 32% 0.00in /  0mm 0.0 W/m2
20:49 50.2 °F /  10.1 °C 22.1 °F /  -5.5 °C 30.34in /  1027.3hPa NNE 0.9mph /  1.4km/h 3.0mph /  4.8km/h 33% 0.00in /  0mm 0.0 W/m2
20:55 50.0 °F /  10 °C 22.1 °F /  -5.5 °C 30.35in /  1027.7hPa Calm   5.0mph /  8km/h 33% 0.00in /  0mm 0.0 W/m2
21:02 50.2 °F /  10.1 °C 22.8 °F /  -5.1 °C 30.35in /  1027.7hPa East 2.9mph /  4.7km/h 7.0mph /  11.3km/h 34% 0.00in /  0mm 0.0 W/m2
21:08 50.5 °F /  10.3 °C 23.2 °F /  -4.9 °C 30.35in /  1027.7hPa East 2.0mph /  3.2km/h 5.0mph /  8km/h 34% 0.00in /  0mm 0.0 W/m2
21:14 51.1 °F /  10.6 °C 23.0 °F /  -5 °C 30.35in /  1027.7hPa NNE 2.9mph /  4.7km/h 4.0mph /  6.4km/h 33% 0.00in /  0mm 0.0 W/m2
21:20 51.3 °F /  10.7 °C 23.2 °F /  -4.9 °C 30.35in /  1027.7hPa Calm   3.0mph /  4.8km/h 33% 0.00in /  0mm 0.0 W/m2
21:26 51.3 °F /  10.7 °C 23.2 °F /  -4.9 °C 30.35in /  1027.7hPa ENE 2.0mph /  3.2km/h 3.0mph /  4.8km/h 33% 0.00in /  0mm 0.0 W/m2
21:32 51.3 °F /  10.7 °C 22.5 °F /  -5.3 °C 30.36in /  1028hPa ENE 0.9mph /  1.4km/h 4.0mph /  6.4km/h 32% 0.00in /  0mm 0.0 W/m2
21:38 51.6 °F /  10.9 °C 21.9 °F /  -5.6 °C 30.36in /  1028hPa NE 2.0mph /  3.2km/h 8.0mph /  12.9km/h 31% 0.00in /  0mm 0.0 W/m2
21:44 52.2 °F /  11.2 °C 22.5 °F /  -5.3 °C 30.36in /  1028hPa ENE 4.9mph /  7.9km/h 5.0mph /  8km/h 31% 0.00in /  0mm 0.0 W/m2
21:50 52.5 °F /  11.4 °C 21.9 °F /  -5.6 °C 30.36in /  1028hPa Calm   6.0mph /  9.7km/h 30% 0.00in /  0mm 0.0 W/m2
21:56 52.5 °F /  11.4 °C 21.9 °F /  -5.6 °C 30.36in /  1028hPa ENE 0.9mph /  1.4km/h 6.0mph /  9.7km/h 30% 0.00in /  0mm 0.0 W/m2
22:02 52.7 °F /  11.5 °C 22.1 °F /  -5.5 °C 30.36in /  1028hPa Calm   2.0mph /  3.2km/h 30% 0.00in /  0mm 0.0 W/m2
22:08 52.5 °F /  11.4 °C 21.9 °F /  -5.6 °C 30.36in /  1028hPa SSE 0.9mph /  1.4km/h 2.0mph /  3.2km/h 30% 0.00in /  0mm 0.0 W/m2
22:14 52.5 °F /  11.4 °C 21.9 °F /  -5.6 °C 30.36in /  1028hPa Calm   3.0mph /  4.8km/h 30% 0.00in /  0mm 0.0 W/m2
22:20 52.3 °F /  11.3 °C 21.7 °F /  -5.7 °C 30.36in /  1028hPa ENE 2.9mph /  4.7km/h 4.0mph /  6.4km/h 30% 0.00in /  0mm 0.0 W/m2
22:26 52.5 °F /  11.4 °C 21.9 °F /  -5.6 °C 30.36in /  1028hPa NE 4.9mph /  7.9km/h 5.0mph /  8km/h 30% 0.00in /  0mm 0.0 W/m2
22:33 52.3 °F /  11.3 °C 21.7 °F /  -5.7 °C 30.36in /  1028hPa Calm   7.0mph /  11.3km/h 30% 0.00in /  0mm 0.0 W/m2
22:39 52.3 °F /  11.3 °C 21.7 °F /  -5.7 °C 30.36in /  1028hPa East 2.0mph /  3.2km/h 4.0mph /  6.4km/h 30% 0.00in /  0mm 0.0 W/m2
22:45 52.3 °F /  11.3 °C 21.7 °F /  -5.7 °C 30.36in /  1028hPa Calm   5.0mph /  8km/h 30% 0.00in /  0mm 0.0 W/m2
22:51 52.5 °F /  11.4 °C 21.9 °F /  -5.6 °C 30.36in /  1028hPa ESE 2.9mph /  4.7km/h 8.0mph /  12.9km/h 30% 0.00in /  0mm 0.0 W/m2
22:57 52.9 °F /  11.6 °C 22.3 °F /  -5.4 °C 30.36in /  1028hPa ENE 0.9mph /  1.4km/h 4.0mph /  6.4km/h 30% 0.00in /  0mm 0.0 W/m2
23:03 52.9 °F /  11.6 °C 22.3 °F /  -5.4 °C 30.36in /  1028hPa Calm   1.0mph /  1.6km/h 30% 0.00in /  0mm 0.0 W/m2
23:09 52.9 °F /  11.6 °C 22.3 °F /  -5.4 °C 30.36in /  1028hPa Calm   3.0mph /  4.8km/h 30% 0.00in /  0mm 0.0 W/m2
23:16 53.1 °F /  11.7 °C 21.6 °F /  -5.8 °C 30.36in /  1028hPa Calm   3.0mph /  4.8km/h 29% 0.00in /  0mm 0.0 W/m2
23:22 53.1 °F /  11.7 °C 21.6 °F /  -5.8 °C 30.36in /  1028hPa Calm   7.0mph /  11.3km/h 29% 0.00in /  0mm 0.0 W/m2
23:28 53.1 °F /  11.7 °C 22.5 °F /  -5.3 °C 30.36in /  1028hPa Calm   8.0mph /  12.9km/h 30% 0.00in /  0mm 0.0 W/m2
23:34 52.9 °F /  11.6 °C 22.3 °F /  -5.4 °C 30.36in /  1028hPa East 2.0mph /  3.2km/h 6.0mph /  9.7km/h 30% 0.00in /  0mm 0.0 W/m2
23:40 53.1 °F /  11.7 °C 22.5 °F /  -5.3 °C 30.36in /  1028hPa NE 2.0mph /  3.2km/h 6.0mph /  9.7km/h 30% 0.00in /  0mm 0.0 W/m2
23:46 53.1 °F /  11.7 °C 21.6 °F /  -5.8 °C 30.36in /  1028hPa Calm   6.0mph /  9.7km/h 29% 0.00in /  0mm 0.0 W/m2
23:52 53.1 °F /  11.7 °C 21.6 °F /  -5.8 °C 30.36in /  1028hPa Calm   8.0mph /  12.9km/h 29% 0.00in /  0mm 0.0 W/m2
Olympia, Windhoek, Namibia
Compliments of Weather Underground - 3 mb